createdAt,value
2019-03-06T00:01:03.231Z,5.00
2019-03-06T00:03:32.099Z,5.00
2019-03-06T00:06:00.867Z,5.00
2019-03-06T00:08:29.675Z,5.00
2019-03-06T00:10:58.470Z,4.90
2019-03-06T00:13:27.283Z,5.00
2019-03-06T00:15:56.208Z,5.00
2019-03-06T00:18:25.091Z,5.00
2019-03-06T00:20:54.031Z,4.90
2019-03-06T00:23:22.815Z,4.90
2019-03-06T00:25:51.628Z,4.90
2019-03-06T00:28:20.422Z,4.80
2019-03-06T00:30:49.361Z,4.80
2019-03-06T00:33:18.147Z,4.70
2019-03-06T00:35:48.794Z,4.70
2019-03-06T00:38:17.648Z,4.70
2019-03-06T00:41:23.891Z,4.60
2019-03-06T00:43:53.104Z,4.60
2019-03-06T00:46:22.299Z,4.80
2019-03-06T00:48:51.186Z,4.80
2019-03-06T00:51:20.030Z,4.70
2019-03-06T00:53:48.890Z,4.70
2019-03-06T00:56:17.778Z,4.70
2019-03-06T00:58:46.576Z,4.70
2019-03-06T01:01:16.110Z,4.70
2019-03-06T01:03:44.978Z,4.70
2019-03-06T01:06:13.819Z,4.70
2019-03-06T01:08:42.716Z,4.70
2019-03-06T01:11:11.851Z,4.70
2019-03-06T01:13:40.870Z,4.70
2019-03-06T01:16:10.192Z,4.70
2019-03-06T01:18:38.994Z,4.70
2019-03-06T01:21:07.854Z,4.70
2019-03-06T01:23:36.783Z,4.70
2019-03-06T01:26:06.062Z,4.80
2019-03-06T01:28:34.947Z,4.80
2019-03-06T01:31:03.846Z,4.70
2019-03-06T01:33:51.829Z,4.80
2019-03-06T01:36:51.886Z,4.70
2019-03-06T01:39:38.578Z,4.80
2019-03-06T01:42:32.458Z,4.80
2019-03-06T01:45:04.518Z,4.80
2019-03-06T01:47:33.375Z,4.80
2019-03-06T01:50:02.163Z,4.80
2019-03-06T01:52:30.962Z,4.90
2019-03-06T01:55:00.163Z,4.90
2019-03-06T01:57:29.412Z,4.90
2019-03-06T01:59:58.267Z,4.90
2019-03-06T02:02:27.158Z,4.90
2019-03-06T02:04:56.007Z,4.90
2019-03-06T02:07:25.080Z,4.90
2019-03-06T02:09:55.233Z,4.90
2019-03-06T02:12:24.149Z,4.90
2019-03-06T02:14:53.422Z,4.90
2019-03-06T02:17:22.286Z,4.80
2019-03-06T02:19:51.298Z,4.70
2019-03-06T02:22:20.182Z,4.70
2019-03-06T02:24:49.058Z,4.60
2019-03-06T02:27:17.995Z,4.40
2019-03-06T02:29:46.803Z,4.30
2019-03-06T02:32:15.699Z,4.10
2019-03-06T02:34:44.722Z,4.10
2019-03-06T02:37:13.882Z,3.90
2019-03-06T02:39:42.906Z,3.70
2019-03-06T02:42:11.790Z,3.50
2019-03-06T02:44:40.664Z,3.40
2019-03-06T02:47:09.519Z,3.40
2019-03-06T02:49:38.313Z,3.40
2019-03-06T02:52:07.613Z,3.60
2019-03-06T02:54:36.552Z,3.50
2019-03-06T02:57:05.588Z,3.40
2019-03-06T02:59:43.904Z,3.40
2019-03-06T03:02:30.809Z,3.40
2019-03-06T03:05:22.772Z,3.40
2019-03-06T03:07:51.966Z,3.20
2019-03-06T03:10:20.958Z,3.00
2019-03-06T03:12:50.025Z,2.80
2019-03-06T03:15:19.182Z,2.70
2019-03-06T03:17:48.444Z,2.60
2019-03-06T03:20:18.372Z,2.50
2019-03-06T03:22:47.454Z,2.50
2019-03-06T03:25:16.519Z,2.40
2019-03-06T03:27:46.020Z,2.40
2019-03-06T03:30:15.390Z,2.40
2019-03-06T03:32:44.656Z,2.60
2019-03-06T03:35:13.801Z,2.70
2019-03-06T03:37:42.918Z,2.70
2019-03-06T03:40:12.711Z,2.60
2019-03-06T03:42:41.745Z,2.50
2019-03-06T03:45:11.424Z,2.50
2019-03-06T03:47:40.291Z,2.40
2019-03-06T03:50:09.848Z,2.30
2019-03-06T03:52:39.735Z,2.20
2019-03-06T03:55:08.784Z,2.20
2019-03-06T03:57:37.844Z,2.20
2019-03-06T04:00:08.277Z,2.20
2019-03-06T04:02:37.388Z,2.10
2019-03-06T04:05:07.195Z,2.10
2019-03-06T04:07:36.221Z,2.10
2019-03-06T04:10:05.859Z,2.20
2019-03-06T04:12:35.153Z,2.10
2019-03-06T04:15:04.922Z,2.20
2019-03-06T04:17:33.894Z,2.20
2019-03-06T04:20:02.941Z,2.20
2019-03-06T04:22:32.098Z,2.20
2019-03-06T04:25:01.014Z,2.10
2019-03-06T04:27:30.015Z,2.10
2019-03-06T04:29:59.220Z,2.10
2019-03-06T04:32:28.214Z,2.10
2019-03-06T04:34:57.269Z,2.10
2019-03-06T04:37:26.206Z,2.00
2019-03-06T04:39:58.282Z,2.00
2019-03-06T04:42:29.340Z,1.90
2019-03-06T04:44:58.589Z,1.90
2019-03-06T04:47:27.579Z,1.90
2019-03-06T04:49:56.508Z,1.90
2019-03-06T04:52:25.444Z,1.90
2019-03-06T04:54:54.325Z,1.90
2019-03-06T04:57:23.273Z,1.90
2019-03-06T04:59:52.236Z,1.90
2019-03-06T05:02:21.296Z,1.80
2019-03-06T05:04:50.668Z,1.90
2019-03-06T05:07:19.620Z,1.80
2019-03-06T05:09:48.684Z,1.80
2019-03-06T05:12:18.707Z,1.80
2019-03-06T05:14:47.927Z,1.80
2019-03-06T05:17:23.215Z,1.80
2019-03-06T05:19:52.660Z,1.90
2019-03-06T05:22:21.690Z,1.90
2019-03-06T05:24:50.717Z,1.90
2019-03-06T05:27:19.574Z,1.90
2019-03-06T05:29:48.796Z,1.80
2019-03-06T05:32:29.028Z,1.80
2019-03-06T05:34:59.501Z,1.80
2019-03-06T05:38:04.499Z,1.80
2019-03-06T05:40:33.424Z,1.80
2019-03-06T05:43:02.350Z,1.80
2019-03-06T05:45:31.352Z,1.80
2019-03-06T05:48:00.664Z,1.80
2019-03-06T05:50:29.691Z,1.70
2019-03-06T05:52:58.701Z,1.80
2019-03-06T05:55:27.638Z,1.70
2019-03-06T05:57:56.508Z,1.70
2019-03-06T06:00:27.097Z,1.70
2019-03-06T06:02:56.111Z,1.60
2019-03-06T06:05:25.152Z,1.70
2019-03-06T06:07:54.155Z,1.70
2019-03-06T06:10:23.172Z,1.70
2019-03-06T06:12:52.313Z,1.80
2019-03-06T06:15:21.317Z,1.90
2019-03-06T06:17:50.213Z,2.00
2019-03-06T06:20:19.095Z,2.00
2019-03-06T06:22:57.320Z,2.10
2019-03-06T06:25:26.682Z,2.10
2019-03-06T06:27:55.531Z,2.30
2019-03-06T06:30:24.473Z,2.40
2019-03-06T06:32:53.412Z,2.50
2019-03-06T06:35:22.553Z,2.60
2019-03-06T06:37:51.519Z,2.60
2019-03-06T06:40:20.575Z,2.70
2019-03-06T06:42:49.519Z,2.80
2019-03-06T06:45:18.556Z,2.90
2019-03-06T06:48:23.229Z,3.00
2019-03-06T06:51:18.153Z,3.00
2019-03-06T06:54:04.557Z,2.90
2019-03-06T06:57:05.364Z,2.90
2019-03-06T07:00:14.341Z,2.90
2019-03-06T07:03:33.154Z,2.90
2019-03-06T07:06:19.387Z,3.00
2019-03-06T07:08:57.755Z,3.00
2019-03-06T07:11:52.484Z,3.10
2019-03-06T07:14:34.603Z,3.30
2019-03-06T07:17:22.991Z,3.40
2019-03-06T07:20:08.804Z,3.70
2019-03-06T07:22:46.829Z,3.90
2019-03-06T07:25:34.832Z,4.10
2019-03-06T07:28:09.481Z,4.30
2019-03-06T07:30:56.388Z,4.50
2019-03-06T07:33:44.415Z,4.70
2019-03-06T07:36:47.510Z,5.00
2019-03-06T07:39:43.736Z,5.00
2019-03-06T07:42:47.072Z,5.20
2019-03-06T07:46:00.292Z,5.40
2019-03-06T07:48:57.128Z,5.70
2019-03-06T07:51:57.273Z,6.00
2019-03-06T07:54:41.046Z,6.30
2019-03-06T07:57:38.161Z,6.80
2019-03-06T08:00:19.331Z,7.10
2019-03-06T08:03:19.673Z,7.20
2019-03-06T08:05:48.516Z,7.50
2019-03-06T08:08:17.500Z,7.80
2019-03-06T08:10:46.451Z,8.10
2019-03-06T08:13:37.603Z,8.30
2019-03-06T08:16:17.657Z,8.80
2019-03-06T08:18:56.448Z,8.80
2019-03-06T08:21:44.869Z,8.70
2019-03-06T08:24:35.994Z,8.60
2019-03-06T08:27:04.986Z,8.60
2019-03-06T08:29:33.899Z,9.00
2019-03-06T08:32:11.171Z,9.40
2019-03-06T08:34:40.062Z,10.00
2019-03-06T08:37:08.833Z,10.00
2019-03-06T08:39:37.782Z,10.20
2019-03-06T08:42:06.690Z,10.20
2019-03-06T08:44:35.586Z,9.70
2019-03-06T08:47:18.650Z,9.80
2019-03-06T08:49:58.066Z,10.40
2019-03-06T08:52:44.481Z,10.50
2019-03-06T08:55:31.455Z,10.90
2019-03-06T08:58:06.926Z,11.20
2019-03-06T09:00:53.869Z,11.50
2019-03-06T09:03:57.567Z,11.50
2019-03-06T09:06:33.526Z,11.00
2019-03-06T09:09:20.146Z,10.90
2019-03-06T09:12:14.130Z,11.00
2019-03-06T09:15:05.475Z,10.90
2019-03-06T09:17:53.765Z,11.40
2019-03-06T09:20:49.370Z,11.90
2019-03-06T09:23:36.259Z,12.40
2019-03-06T09:26:24.379Z,12.40
2019-03-06T09:29:01.847Z,12.40
2019-03-06T09:31:44.941Z,12.50
2019-03-06T09:34:33.236Z,12.60
2019-03-06T09:37:36.307Z,12.90
2019-03-06T09:40:24.155Z,13.30
2019-03-06T09:43:07.467Z,13.60
2019-03-06T09:45:58.683Z,13.40
2019-03-06T09:48:45.615Z,13.30
2019-03-06T09:51:29.958Z,13.20
2019-03-06T09:54:29.777Z,12.90
2019-03-06T09:57:16.578Z,13.30
2019-03-06T10:00:16.951Z,13.70
2019-03-06T10:03:08.013Z,13.30
2019-03-06T10:05:55.938Z,13.40
2019-03-06T10:08:31.998Z,13.40
2019-03-06T10:11:10.398Z,13.20
2019-03-06T10:13:47.173Z,13.00
2019-03-06T10:16:30.302Z,13.40
2019-03-06T10:19:31.025Z,13.30
2019-03-06T10:22:00.402Z,14.00
2019-03-06T10:24:29.270Z,14.30
2019-03-06T10:26:58.218Z,14.20
2019-03-06T10:29:27.542Z,13.90
2019-03-06T10:31:56.335Z,13.80
2019-03-06T10:34:25.726Z,14.00
2019-03-06T10:36:54.658Z,14.10
2019-03-06T10:39:23.509Z,13.80
2019-03-06T10:41:52.430Z,13.70
2019-03-06T10:44:28.806Z,13.90
2019-03-06T10:46:52.118Z,14.50
2019-03-06T10:49:20.938Z,15.50
2019-03-06T10:51:49.730Z,16.30
2019-03-06T10:54:18.649Z,17.10
2019-03-06T10:56:47.682Z,16.70
2019-03-06T10:59:16.695Z,16.10
2019-03-06T11:01:45.983Z,16.10
2019-03-06T11:04:27.910Z,15.30
2019-03-06T11:06:57.102Z,15.60
2019-03-06T11:09:26.811Z,16.00
2019-03-06T11:11:55.942Z,15.40
2019-03-06T11:14:24.982Z,15.70
2019-03-06T11:16:53.830Z,15.80
2019-03-06T11:19:23.146Z,16.20
2019-03-06T11:21:52.098Z,16.00
2019-03-06T11:24:21.022Z,15.90
2019-03-06T11:26:49.996Z,15.80
2019-03-06T11:29:19.467Z,15.40
2019-03-06T11:31:48.619Z,15.30
2019-03-06T11:34:17.723Z,14.90
2019-03-06T11:36:46.648Z,15.20
2019-03-06T11:39:15.647Z,15.20
2019-03-06T11:41:44.588Z,14.90
2019-03-06T11:44:13.556Z,14.80
2019-03-06T11:46:42.790Z,15.00
2019-03-06T11:49:11.722Z,15.10
2019-03-06T11:51:40.750Z,15.00
2019-03-06T11:54:10.050Z,14.90
2019-03-06T11:56:39.024Z,14.90
2019-03-06T11:59:07.959Z,14.90
2019-03-06T12:01:36.978Z,15.30
2019-03-06T12:04:06.247Z,15.40
2019-03-06T12:06:35.158Z,15.40
2019-03-06T12:09:08.945Z,15.20
2019-03-06T12:11:37.742Z,15.20
2019-03-06T12:14:06.794Z,14.80
2019-03-06T12:16:41.863Z,14.60
2019-03-06T12:19:06.229Z,14.50
2019-03-06T12:21:35.131Z,14.60
2019-03-06T12:24:03.970Z,14.90
2019-03-06T12:26:32.897Z,14.90
2019-03-06T12:29:02.108Z,14.70
2019-03-06T12:31:31.182Z,14.50
2019-03-06T12:34:00.150Z,14.50
2019-03-06T12:36:28.936Z,14.20
2019-03-06T12:38:58.762Z,14.00
2019-03-06T12:41:27.598Z,13.90
2019-03-06T12:43:56.444Z,13.90
2019-03-06T12:46:25.886Z,13.90
2019-03-06T12:49:04.258Z,14.00
2019-03-06T12:51:34.583Z,14.00
2019-03-06T12:54:03.528Z,14.20
2019-03-06T12:56:32.290Z,14.20
2019-03-06T12:59:01.102Z,14.00
2019-03-06T13:01:30.266Z,14.10
2019-03-06T13:03:59.396Z,14.00
2019-03-06T13:06:28.295Z,14.00
2019-03-06T13:08:57.788Z,13.80
2019-03-06T13:11:26.971Z,13.60
2019-03-06T13:13:55.902Z,13.60
2019-03-06T13:16:25.467Z,13.40
2019-03-06T13:18:54.430Z,13.40
2019-03-06T13:21:24.210Z,13.40
2019-03-06T13:23:53.182Z,13.30
2019-03-06T13:26:22.030Z,13.30
2019-03-06T13:28:57.524Z,13.30
2019-03-06T13:31:22.066Z,13.20
2019-03-06T13:34:11.837Z,13.20
2019-03-06T13:36:40.754Z,13.20
2019-03-06T13:39:10.157Z,13.20
2019-03-06T13:41:39.094Z,13.20
2019-03-06T13:44:08.061Z,13.10
2019-03-06T13:46:37.095Z,13.10
2019-03-06T13:49:06.039Z,13.20
2019-03-06T13:51:35.023Z,13.30
2019-03-06T13:54:04.201Z,13.30
2019-03-06T13:56:33.142Z,13.20
2019-03-06T13:59:01.966Z,13.20
2019-03-06T14:01:31.394Z,13.30
2019-03-06T14:04:00.198Z,13.30
2019-03-06T14:06:29.085Z,13.30
2019-03-06T14:08:57.970Z,13.30
2019-03-06T14:11:26.951Z,13.30
2019-03-06T14:13:55.878Z,13.40
2019-03-06T14:16:25.203Z,13.50
2019-03-06T14:18:54.083Z,13.50
2019-03-06T14:21:23.067Z,13.50
2019-03-06T14:23:51.887Z,13.50
2019-03-06T14:26:20.898Z,13.70
2019-03-06T14:28:49.711Z,14.20
2019-03-06T14:31:18.755Z,15.10
2019-03-06T14:33:47.615Z,16.10
2019-03-06T14:36:16.575Z,16.60
2019-03-06T14:38:45.875Z,16.70
2019-03-06T14:41:14.922Z,16.50
2019-03-06T14:43:43.792Z,16.30
2019-03-06T14:46:16.433Z,15.80
2019-03-06T14:48:43.363Z,15.60
2019-03-06T14:51:13.923Z,15.40
2019-03-06T14:53:42.891Z,15.60
2019-03-06T14:56:12.014Z,16.10
2019-03-06T14:58:41.121Z,16.30
2019-03-06T15:01:10.084Z,16.50
2019-03-06T15:03:38.954Z,16.10
2019-03-06T15:06:07.903Z,15.80
2019-03-06T15:08:36.760Z,15.70
2019-03-06T15:11:05.686Z,15.80
2019-03-06T15:13:34.675Z,15.50
2019-03-06T15:16:03.604Z,15.10
2019-03-06T15:18:32.482Z,14.60
2019-03-06T15:21:01.530Z,14.40
2019-03-06T15:23:30.398Z,14.40
2019-03-06T15:25:59.291Z,14.40
2019-03-06T15:28:29.022Z,14.00
2019-03-06T15:30:57.911Z,13.80
2019-03-06T15:33:26.931Z,13.70
2019-03-06T15:35:55.874Z,13.70
2019-03-06T15:38:24.791Z,13.60
2019-03-06T15:40:53.667Z,13.60
2019-03-06T15:43:22.974Z,13.40
2019-03-06T15:45:51.939Z,13.30
2019-03-06T15:48:20.797Z,13.30
2019-03-06T15:50:49.728Z,13.20
2019-03-06T15:53:24.517Z,13.10
2019-03-06T15:55:49.299Z,13.10
2019-03-06T15:58:18.145Z,13.10
2019-03-06T16:00:48.357Z,13.20
2019-03-06T16:03:17.279Z,13.10
2019-03-06T16:05:46.322Z,13.00
2019-03-06T16:08:15.237Z,12.90
2019-03-06T16:10:44.586Z,12.80
2019-03-06T16:13:13.522Z,12.80
2019-03-06T16:15:42.663Z,12.70
2019-03-06T16:18:11.714Z,12.60
2019-03-06T16:20:41.107Z,12.50
2019-03-06T16:23:10.042Z,12.40
2019-03-06T16:25:40.249Z,12.30
2019-03-06T16:28:09.436Z,12.20
2019-03-06T16:30:39.070Z,12.20
2019-03-06T16:33:08.050Z,12.00
2019-03-06T16:35:37.001Z,11.90
2019-03-06T16:38:06.079Z,11.80
2019-03-06T16:40:35.081Z,11.70
2019-03-06T16:43:03.996Z,11.70
2019-03-06T16:45:32.990Z,11.50
2019-03-06T16:48:01.929Z,11.50
2019-03-06T16:50:30.878Z,11.40
2019-03-06T16:52:59.738Z,11.30
2019-03-06T16:55:28.701Z,11.20
2019-03-06T16:57:58.050Z,11.10
2019-03-06T17:00:31.562Z,11.00
2019-03-06T17:03:01.116Z,11.00
2019-03-06T17:05:30.583Z,10.90
2019-03-06T17:08:00.210Z,10.80
2019-03-06T17:10:29.246Z,10.80
2019-03-06T17:12:58.846Z,11.00
2019-03-06T17:15:28.743Z,11.00
2019-03-06T17:17:57.735Z,11.00
2019-03-06T17:20:27.751Z,10.90
2019-03-06T17:22:57.312Z,10.70
2019-03-06T17:25:28.258Z,10.60
2019-03-06T17:27:57.318Z,10.50
2019-03-06T17:30:26.848Z,10.50
2019-03-06T17:33:14.401Z,10.40
2019-03-06T17:35:43.498Z,10.40
2019-03-06T17:38:12.764Z,10.30
2019-03-06T17:40:41.714Z,10.20
2019-03-06T17:43:10.682Z,10.10
2019-03-06T17:45:39.745Z,10.00
2019-03-06T17:48:09.200Z,9.90
2019-03-06T17:50:38.178Z,9.80
2019-03-06T17:53:07.342Z,9.80
2019-03-06T17:55:36.350Z,9.70
2019-03-06T17:58:05.441Z,9.80
2019-03-06T18:00:47.320Z,9.80
2019-03-06T18:03:20.864Z,9.80
2019-03-06T18:05:50.942Z,9.80
2019-03-06T18:08:20.196Z,9.70
2019-03-06T18:10:49.228Z,9.60
2019-03-06T18:13:18.150Z,9.60
2019-03-06T18:15:47.172Z,9.60
2019-03-06T18:18:16.071Z,9.50
2019-03-06T18:20:45.108Z,9.40
2019-03-06T18:23:14.110Z,9.40
2019-03-06T18:25:43.022Z,9.40
2019-03-06T18:28:12.010Z,9.30
2019-03-06T18:30:41.846Z,9.30
2019-03-06T18:33:10.859Z,9.10
2019-03-06T18:35:39.866Z,9.00
2019-03-06T18:38:08.791Z,8.90
2019-03-06T18:40:37.795Z,8.80
2019-03-06T18:43:06.991Z,8.70
2019-03-06T18:45:36.113Z,8.70
2019-03-06T18:48:05.683Z,8.70
2019-03-06T18:50:34.534Z,8.60
2019-03-06T18:53:03.475Z,8.60
2019-03-06T18:55:32.465Z,8.40
2019-03-06T18:58:01.709Z,8.30
2019-03-06T19:00:30.823Z,8.20
2019-03-06T19:02:59.870Z,8.20
2019-03-06T19:05:28.866Z,8.20
2019-03-06T19:07:57.813Z,8.20
2019-03-06T19:10:26.941Z,8.10
2019-03-06T19:12:56.066Z,8.20
2019-03-06T19:15:25.038Z,8.10
2019-03-06T19:17:54.020Z,8.10
2019-03-06T19:20:23.845Z,8.00
2019-03-06T19:22:53.458Z,7.80
2019-03-06T19:25:22.559Z,7.70
2019-03-06T19:27:51.587Z,7.70
2019-03-06T19:30:21.478Z,7.70
2019-03-06T19:32:50.554Z,7.60
2019-03-06T19:35:20.111Z,7.50
2019-03-06T19:37:49.083Z,7.50
2019-03-06T19:40:18.690Z,7.50
2019-03-06T19:42:47.941Z,7.40
2019-03-06T19:45:18.182Z,7.40
2019-03-06T19:47:47.630Z,7.30
2019-03-06T19:50:18.534Z,7.20
2019-03-06T19:52:47.463Z,7.10
2019-03-06T19:55:17.787Z,7.00
2019-03-06T19:57:54.583Z,6.90
2019-03-06T20:00:24.285Z,6.80
2019-03-06T20:02:53.405Z,6.80
2019-03-06T20:05:22.946Z,6.70
2019-03-06T20:07:51.886Z,6.70
2019-03-06T20:10:21.423Z,6.70
2019-03-06T20:12:50.366Z,6.60
2019-03-06T20:15:19.828Z,6.60
2019-03-06T20:17:48.879Z,6.60
2019-03-06T20:20:18.237Z,6.60
2019-03-06T20:22:47.507Z,6.50
2019-03-06T20:25:18.154Z,6.50
2019-03-06T20:27:47.244Z,6.50
2019-03-06T20:30:17.406Z,6.50
2019-03-06T20:32:47.325Z,6.50
2019-03-06T20:35:20.143Z,6.60
2019-03-06T20:37:49.317Z,6.60
2019-03-06T20:40:18.995Z,6.50
2019-03-06T20:42:47.983Z,6.50
2019-03-06T20:45:17.430Z,6.40
2019-03-06T20:47:46.734Z,6.40
2019-03-06T20:50:15.702Z,6.40
2019-03-06T20:52:44.751Z,6.30
2019-03-06T20:55:15.347Z,6.30
2019-03-06T20:57:44.591Z,6.30
2019-03-06T21:00:15.697Z,6.30
2019-03-06T21:02:45.043Z,6.20
2019-03-06T21:05:14.121Z,6.20
2019-03-06T21:07:45.192Z,6.20
2019-03-06T21:10:15.365Z,6.20
2019-03-06T21:12:44.442Z,6.20
2019-03-06T21:15:15.393Z,6.20
2019-03-06T21:17:44.664Z,6.20
2019-03-06T21:20:15.214Z,6.30
2019-03-06T21:22:44.156Z,6.30
2019-03-06T21:25:14.529Z,6.30
2019-03-06T21:27:43.394Z,6.40
2019-03-06T21:30:15.527Z,6.40
2019-03-06T21:32:44.414Z,6.40
2019-03-06T21:35:13.310Z,6.50
2019-03-06T21:37:42.273Z,6.50
2019-03-06T21:40:11.261Z,6.50
2019-03-06T21:42:40.214Z,6.50
2019-03-06T21:45:09.595Z,6.50
2019-03-06T21:47:38.580Z,6.50
2019-03-06T21:50:09.744Z,6.50
2019-03-06T21:52:38.562Z,6.60
2019-03-06T21:55:09.387Z,6.60
2019-03-06T21:57:38.859Z,6.70
2019-03-06T22:00:11.503Z,6.80
2019-03-06T22:02:40.491Z,7.00
2019-03-06T22:05:09.722Z,7.10
2019-03-06T22:07:38.585Z,7.00
2019-03-06T22:10:08.257Z,6.90
2019-03-06T22:12:37.582Z,6.90
2019-03-06T22:15:10.454Z,6.90
2019-03-06T22:17:40.234Z,6.90
2019-03-06T22:20:09.843Z,6.90
2019-03-06T22:22:38.726Z,6.90
2019-03-06T22:25:08.339Z,7.00
2019-03-06T22:27:37.193Z,7.00
2019-03-06T22:30:07.482Z,7.00
2019-03-06T22:32:36.401Z,7.00
2019-03-06T22:35:05.431Z,7.10
2019-03-06T22:37:34.234Z,7.10
2019-03-06T22:40:03.098Z,7.10
2019-03-06T22:42:32.227Z,7.00
2019-03-06T22:45:01.319Z,7.00
2019-03-06T22:47:30.498Z,6.90
2019-03-06T22:49:59.856Z,6.80
2019-03-06T22:52:29.185Z,6.90
2019-03-06T22:54:57.973Z,6.90
2019-03-06T22:57:26.930Z,6.90
2019-03-06T22:59:55.731Z,6.80
2019-03-06T23:02:25.147Z,6.80
2019-03-06T23:04:54.030Z,6.80
2019-03-06T23:07:23.023Z,6.80
2019-03-06T23:09:51.830Z,6.90
2019-03-06T23:12:20.726Z,6.90
2019-03-06T23:14:49.580Z,6.90
2019-03-06T23:17:19.719Z,6.80
2019-03-06T23:19:48.823Z,6.80
2019-03-06T23:22:17.648Z,6.80
2019-03-06T23:24:48.737Z,6.80
2019-03-06T23:27:17.329Z,6.70
2019-03-06T23:29:46.172Z,6.60
2019-03-06T23:32:14.991Z,6.60
2019-03-06T23:34:43.779Z,6.60
2019-03-06T23:37:12.586Z,6.70
2019-03-06T23:39:41.747Z,6.70
2019-03-06T23:42:10.738Z,6.80
2019-03-06T23:44:39.594Z,6.80
2019-03-06T23:47:08.459Z,6.80
2019-03-06T23:49:37.556Z,6.80
2019-03-06T23:52:23.258Z,6.70
2019-03-06T23:54:52.418Z,6.60
2019-03-06T23:57:21.496Z,6.60
2019-03-06T23:59:50.402Z,6.50
